createdAt,value
2024-03-24T00:14:11.252Z,25.10
2024-03-24T00:29:36.256Z,25.10
2024-03-24T00:45:01.255Z,24.80
2024-03-24T01:00:26.288Z,24.60
2024-03-24T01:15:51.261Z,24.30
2024-03-24T01:31:16.214Z,24.00
2024-03-24T01:46:41.224Z,23.80
2024-03-24T02:02:06.207Z,23.40
2024-03-24T02:17:31.247Z,23.10
2024-03-24T02:32:57.233Z,22.90
2024-03-24T02:48:22.206Z,22.80
2024-03-24T03:03:47.159Z,22.60
2024-03-24T03:19:12.234Z,22.30
2024-03-24T03:34:37.156Z,22.10
2024-03-24T03:50:02.146Z,21.90
2024-03-24T04:05:27.142Z,21.80
2024-03-24T04:20:52.119Z,21.70
2024-03-24T04:36:17.129Z,21.50
2024-03-24T04:51:42.130Z,21.50
2024-03-24T05:07:07.199Z,21.30
2024-03-24T05:22:32.119Z,21.10
2024-03-24T05:37:57.131Z,21.00
2024-03-24T05:53:22.070Z,20.90
2024-03-24T06:08:47.100Z,20.70
2024-03-24T06:24:12.149Z,20.60
2024-03-24T06:39:39.891Z,20.50
2024-03-24T06:55:02.105Z,20.30
2024-03-24T07:10:27.057Z,20.20
2024-03-24T07:25:52.114Z,20.00
2024-03-24T07:41:17.078Z,19.90
2024-03-24T07:56:42.201Z,19.90
2024-03-24T08:12:07.029Z,20.00
2024-03-24T08:27:31.990Z,20.70
2024-03-24T08:42:58.028Z,21.30
2024-03-24T08:58:23.020Z,21.70
2024-03-24T09:13:48.965Z,22.10
2024-03-24T09:29:14.131Z,22.40
2024-03-24T09:44:41.612Z,22.60
2024-03-24T10:00:04.040Z,22.80
2024-03-24T10:15:28.949Z,22.90
2024-03-24T10:30:53.939Z,23.10
2024-03-24T10:46:21.801Z,23.30
2024-03-24T11:01:43.914Z,23.40
2024-03-24T11:17:08.989Z,23.40
2024-03-24T11:32:33.916Z,23.50
2024-03-24T11:47:58.907Z,23.50
2024-03-24T12:03:23.921Z,23.60
2024-03-24T12:18:48.930Z,23.70
2024-03-24T12:34:13.950Z,23.70
2024-03-24T13:05:03.826Z,23.70
2024-03-24T13:20:28.908Z,23.80
2024-03-24T13:35:53.796Z,23.80
2024-03-24T13:51:18.860Z,23.90
2024-03-24T14:06:43.820Z,23.90
2024-03-24T14:22:08.803Z,23.80
2024-03-24T14:37:33.832Z,23.80
2024-03-24T14:52:58.803Z,23.90
2024-03-24T15:08:23.890Z,24.10
2024-03-24T15:23:49.804Z,24.10
2024-03-24T15:39:14.841Z,24.20
2024-03-24T15:54:39.816Z,24.10
2024-03-24T16:10:05.782Z,24.10
2024-03-24T16:25:30.787Z,24.00
2024-03-24T16:40:55.753Z,24.00
2024-03-24T16:56:21.794Z,24.00
2024-03-24T17:11:46.765Z,24.20
2024-03-24T17:27:11.768Z,24.10
2024-03-24T17:42:37.752Z,24.20
2024-03-24T17:58:02.692Z,24.30
2024-03-24T18:13:27.695Z,24.20
2024-03-24T18:28:52.731Z,24.40
2024-03-24T18:44:17.738Z,24.40
2024-03-24T18:59:44.431Z,24.50
2024-03-24T19:15:07.700Z,24.70
2024-03-24T19:30:32.755Z,24.70
2024-03-24T19:45:57.808Z,24.70
2024-03-24T20:01:22.805Z,24.60
2024-03-24T20:16:47.678Z,24.60
2024-03-24T20:32:12.722Z,24.60
2024-03-24T20:47:37.644Z,24.80
2024-03-24T21:03:02.624Z,24.80
2024-03-24T21:18:27.630Z,24.90
2024-03-24T21:33:53.624Z,25.10
2024-03-24T21:49:18.783Z,25.10
2024-03-24T22:04:43.599Z,25.10
2024-03-24T22:20:08.588Z,25.10
2024-03-24T22:35:33.567Z,25.10
2024-03-24T22:50:58.528Z,25.10
2024-03-24T23:06:23.584Z,25.10
2024-03-24T23:21:48.604Z,24.90
2024-03-24T23:37:13.548Z,24.50
2024-03-24T23:52:38.565Z,24.10
